APG Airport (Phillips Aaf) Information

FAA: APG - ICAO: KAPG

APG Airport Location

State Maryland
County Harford
City Aberdeen Proving Grounds(Aberdeen)
APG Airport is 2 miles south of Aberdeen Proving Grounds(Aberdeen), MD.
Latitude 39-27-55.6740N
Longitude 076-10-05.8520W
Elevation 44ft

KAPG Airport METARs

METAR KAPG 080558Z AUTO 00000KT 10SM OVC140 M00/M04 A3015 RMK AO2 SLP213 T10051037 10018 21017 58018 $
Altimeter 30.15"
Temperature -0.5°C (31.1°F)
Wind 0° at 0KT
Clouds overcast at 14,000ft
Visibility 10.0mi
Time observed: 2021-12-08T05:58:00Z

APG Airport Details

Status Operational
Activation N/A
Ownership Military - Army
Usage Private
Chart WASHINGTON
ATC on-site Yes
Beacon schedule sunset-sunrise
Beacon color split clear green

APG Airport Contacts

Owner US ARMY ATCA-ASO
Owner address CAMERON STA, ALEXANDRIA, VA 22314
Owner phone N/A
Manager EDWARD R. THOMPSON, JR.
Manager address WEBBER ROAD, BOX 248, WATERBORO, ME 04084
Manager phone 207-247-4427

APG Airport (Phillips Aaf) Radio Frequencies

APG (Airport) Radio Frequencies

UNICOM N/A
Common traffic advisory frequency (CTAF) N/A